Latest Coastal Weather Observations for Wilsons Promontory

IDV60701

Issued at 6:21 am EST Friday 27 May 2016 (issued every 10 minutes, with the page automatically refreshed every 10 minutes)

About coastal observations | Map of coastal stations | Coastal observations for VIC | Marine services | Other Formats
Station Details ID: 085096 Name: WILSONS PROMONTORY LIGHTHOUSE Lat: -39.13 Lon: 146.42 Height: 95.0 m
Data from the previous 72 hours. | See also: Recent months at Wilsons Promontory
Date/Time
EST
Temp

°C
Wind Pressure Rain
since 9am
mm
Weather Cloud Vis
km
Sea
Height
m
Swell
Dir
 
Speed
knots
Gust
knots
hPa Trend Height
m
Period
s
Dir
27/06:00am 11.9 SW 34 42 1002.1 - 6.2 - - - - - - -
27/05:40am 11.7 SW 31 41 1001.9 - 6.2 - - - - - - -
27/05:30am 11.6 WSW 34 41 1001.9 - 6.2 - - - - - - -
27/05:00am 11.9 SW 33 41 1001.8 - 6.2 - - - - - - -
27/04:37am 12.0 SW 31 41 1001.8 - 6.2 - - - - - - -
27/04:30am 11.9 SW 34 41 1001.6 - 6.2 - - - - - - -
27/04:00am 11.9 SW 34 43 1001.2 - 6.2 - - - - - - -
27/03:54am 12.1 SW 27 44 1001.4 - 6.2 - - - - - - -
27/03:30am 11.9 WSW 39 43 1001.2 - 6.2 - - - - - - -
27/03:00am 12.1 WSW 34 43 1001.4 - 6.2 - - - - - - -
27/02:30am 11.9 SW 37 42 1001.4 - 6.2 - - - - - - -
27/02:00am 12.0 WSW 37 42 1001.3 - 6.2 - - - - - - -
27/01:30am 12.1 SW 37 42 1001.1 - 6.2 - - - - - - -
27/01:00am 12.0 WSW 38 44 1001.1 - 6.2 - - - - - - -
27/12:46am 12.1 WSW 39 41 1001.3 - 6.2 - - - - - - -
27/12:30am 12.1 WSW 27 39 1001.7 - 6.2 - - - - - - -
27/12:20am 11.9 W 26 38 1001.9 - 6.2 - - - - - - -
27/12:00am 12.3 WSW 37 41 1001.5 - 6.2 - - - - - - -
 
Date/Time
EST
Temp

°C
Wind Pressure Rain
since 9am
mm
Weather Cloud Vis
km
Sea
Height
m
Swell
Dir
 
Speed
knots
Gust
knots
hPa Trend Height
m
Period
s
Dir
26/11:40pm 11.9 WSW 30 40 1001.8 - 6.2 - - - - - - -
26/11:30pm 12.3 WSW 37 42 1001.7 - 6.2 - - - - - - -
26/11:00pm 12.0 SW 36 47 1001.6 - 6.2 - - - - - - -
26/10:33pm 12.0 SW 36 46 1001.2 - 6.2 - - - - - - -
26/10:30pm 12.2 SW 41 46 1001.0 - 6.2 - - - - - - -
26/10:02pm 12.5 SW 31 41 1001.7 - 6.2 - - - - - - -
26/10:00pm 12.4 SW 34 41 1001.6 - 6.2 - - - - - - -
26/09:31pm 12.6 SW 31 41 1001.3 - 6.2 - - - - - - -
26/09:30pm 12.7 SW 32 41 1001.3 - 6.2 - - - - - - -
26/09:01pm 12.6 SW 33 43 1001.3 - 6.2 - - - - - - -
26/09:00pm 12.5 SW 34 43 1001.3 - 6.2 - - - - - - -
26/08:30pm 12.6 SW 32 42 1000.9 - 6.2 - - - - - - -
26/08:00pm 12.0 SW 35 48 1000.5 - 6.2 - - - - - - -
26/07:57pm 12.0 SW 38 48 1000.0 - 6.2 - - - - - - -
26/07:30pm 12.7 WSW 40 46 1000.3 - 6.2 - - - - - - -
26/07:00pm 12.7 WSW 39 44 1000.1 - 6.2 - - - - - - -
26/06:30pm 12.7 WSW 39 44 1000.0 - 6.2 - - - - - - -
26/06:14pm 12.7 WSW 35 45 1000.1 - 6.2 - - - - - - -
26/06:00pm 12.6 WSW 38 45 999.6 - 6.2 - - - - - - -
26/05:30pm 12.4 WSW 36 41 999.5 - 6.2 - - - - - - -
26/05:00pm 12.1 WSW 33 39 999.7 - 6.2 - - - - - - -
26/04:56pm 11.9 WSW 32 38 999.8 - 6.2 - - - - - - -
26/04:48pm 10.7 W 18 32 1000.2 - 6.2 - - - - - - -
26/04:30pm 10.6 W 17 23 1000.5 - 6.0 - - - - - - -
26/04:00pm 10.3 WSW 27 32 1000.2 - 5.6 - - - - - - -
26/03:30pm 10.4 WSW 25 33 999.7 - 5.2 - - - - - - -
26/03:00pm 10.4 WSW 25 30 999.8 - 4.4 - - - - - - -
26/02:30pm 10.6 WSW 24 28 999.7 - 4.0 - - - - - - -
26/02:00pm 10.6 WSW 25 28 999.7 - 3.6 - - - - - - -
26/01:30pm 10.5 SW 18 25 1000.1 - 3.2 - - - - - - -
26/01:00pm 11.2 SW 26 30 999.7 - 2.6 - - - - - - -
26/12:55pm 11.5 SW 24 30 999.8 - 2.4 - - - - - - -
26/12:50pm 11.2 W 15 25 1000.1 - 2.4 - - - - - - -
26/12:30pm 11.1 W 13 19 1000.2 - 2.2 - - - - - - -
26/12:00pm 10.6 W 11 16 1000.5 - 2.2 - - - - - - -
26/11:30am 10.5 W 19 29 1000.7 - 1.4 - - - - - - -
26/11:09am 10.8 WNW 19 29 1000.7 - 0.0 - - - - - - -
26/11:00am 10.8 WNW 21 30 1000.7 - 0.0 - - - - - - -
26/10:30am 10.8 WNW 27 36 1000.5 - 0.0 - - - - - - -
26/10:00am 10.6 NW 23 35 1000.5 - 0.0 - - - - - - -
26/09:30am 10.6 WNW 24 37 1000.8 - 0.0 - - - - - - -
26/09:00am 10.6 NW 22 32 1000.9 - 3.4 - - - - - - -
26/08:31am 10.5 WNW 22 33 1001.0 - 3.4 - - - - - - -
26/08:30am 10.6 WNW 22 31 1000.9 - 3.4 - - - - - - -
26/08:00am 10.6 WNW 21 33 1001.5 - 3.2 - - - - - - -
26/07:30am 10.6 NW 20 35 1001.5 - 3.0 - - - - - - -
26/07:00am 10.7 WNW 19 29 1001.7 - 2.6 - - - - - - -
26/06:39am 10.8 WNW 23 33 1002.1 - 2.4 - - - - - - -
26/06:30am 10.9 WNW 24 32 1001.8 - 2.4 - - - - - - -
26/06:14am 10.8 WNW 23 33 1001.7 - 2.4 - - - - - - -
26/06:00am 11.0 WNW 23 32 1001.8 - 2.4 - - - - - - -
26/05:30am 11.4 WNW 24 35 1002.1 - 2.4 - - - - - - -
26/05:00am 11.2 WNW 29 39 1002.0 - 2.2 - - - - - - -
26/04:31am 11.1 WNW 27 37 1002.0 - 2.2 - - - - - - -
26/04:30am 11.1 WNW 26 35 1002.1 - 2.2 - - - - - - -
26/04:00am 11.6 WNW 25 35 1002.8 - 2.2 - - - - - - -
26/03:36am 11.6 WNW 15 31 1002.6 - 2.2 - - - - - - -
26/03:30am 11.6 WNW 14 27 1003.0 - 2.2 - - - - - - -
26/03:25am 11.5 WNW 15 25 1003.2 - 2.2 - - - - - - -
26/03:21am 11.5 W 8 26 1003.2 - 2.2 - - - - - - -
26/03:00am 11.5 WNW 22 37 1003.3 - 2.2 - - - - - - -
26/02:30am 11.6 WNW 17 36 1003.4 - 2.2 - - - - - - -
26/02:00am 11.4 WNW 18 31 1003.8 - 2.2 - - - - - - -
26/01:30am 11.5 WNW 17 28 1004.0 - 2.2 - - - - - - -
26/01:00am 11.9 NNW 8 21 1004.8 - 1.6 - - - - - - -
26/12:30am 12.2 SE 7 12 1005.6 - 1.4 - - - - - - -
26/12:00am 12.3 NNE 4 8 1006.0 - 1.4 - - - - - - -
 
Date/Time
EST
Temp

°C
Wind Pressure Rain
since 9am
mm
Weather Cloud Vis
km
Sea
Height
m
Swell
Dir
 
Speed
knots
Gust
knots
hPa Trend Height
m
Period
s
Dir
25/11:30pm 12.0 NNE 4 9 1006.5 - 1.4 - - - - - - -
25/11:00pm 11.8 NNE 6 7 1006.8 - 1.4 - - - - - - -
25/10:30pm 11.8 NNE 7 10 1007.0 - 1.4 - - - - - - -
25/10:00pm 12.1 NNE 7 12 1007.2 - 1.4 - - - - - - -
25/09:30pm 12.0 NNE 5 11 1007.5 - 1.4 - - - - - - -
25/09:00pm 12.2 N 9 18 1007.8 - 1.4 - - - - - - -
25/08:30pm 12.0 N 10 15 1007.9 - 1.4 - - - - - - -
25/08:00pm 12.0 N 9 17 1007.9 - 1.2 - - - - - - -
25/07:30pm 11.8 N 8 13 1007.9 - 1.0 - - - - - - -
25/07:00pm 11.9 NNW 11 21 1007.9 - 0.8 - - - - - - -
25/06:30pm 11.7 NW 9 19 1008.0 - 0.6 - - - - - - -
25/06:05pm 11.9 WNW 25 46 1007.2 - 0.2 - - - - - - -
25/06:00pm 12.0 WNW 24 36 1007.6 - 0.2 - - - - - - -
25/05:36pm 14.0 WNW 24 43 1006.9 - 0.0 - - - - - - -
25/05:30pm 14.3 WNW 19 32 1007.0 - 0.0 - - - - - - -
25/05:00pm 14.6 WNW 20 33 1007.2 - 0.0 - - - - - - -
25/04:39pm 14.7 WNW 20 33 1006.9 - 0.0 - - - - - - -
25/04:30pm 14.7 NNW 17 34 1007.3 - 0.0 - - - - - - -
25/04:20pm 14.8 NW 25 44 1007.3 - 0.0 - - - - - - -
25/04:00pm 14.9 N 19 39 1007.6 - 0.0 - - - - - - -
25/03:30pm 14.8 NNW 17 32 1008.2 - 0.0 - - - - - - -
25/03:00pm 14.9 NNW 18 32 1008.4 - 0.0 - - - - - - -
25/02:30pm 15.1 NNW 18 31 1008.5 - 0.0 - - - - - - -
25/02:00pm 15.1 NNW 16 29 1008.6 - 0.0 - - - - - - -
25/01:36pm 15.0 NNW 15 27 1009.2 - 0.0 - - - - - - -
25/01:30pm 15.1 NNW 13 27 1009.4 - 0.0 - - - - - - -
25/01:00pm 14.8 N 15 25 1009.7 - 0.0 - - - - - - -
25/12:58pm 14.8 N 15 25 1009.8 - 0.0 - - - - - - -
25/12:30pm 14.8 NNW 13 25 1010.4 - 0.0 - - - - - - -
25/12:24pm 14.7 NNW 15 26 1010.4 - 0.0 - - - - - - -
25/12:00pm 14.9 NNW 10 20 1011.0 - 0.0 - - - - - - -
25/11:33am 14.8 NNW 15 30 1011.7 - 0.0 - - - - - - -
25/11:30am 14.8 NNW 14 24 1011.8 - 0.0 - - - - - - -
25/11:00am 15.3 NNW 10 19 1012.3 - 0.0 - - - - - - -
25/10:30am 14.5 NNW 10 19 1013.0 - 0.0 - - - - - - -
25/10:00am 13.8 NNW 13 21 1013.1 - 0.0 - - - - - - -
25/09:30am 13.5 NNW 14 24 1013.5 - 0.0 - - - - - - -
25/09:00am 13.3 NNW 13 19 1013.7 - 0.0 - - - - - - -
25/08:30am 13.1 NW 10 18 1013.8 - 0.0 - - - - - - -
25/08:00am 12.6 NW 13 18 1014.2 - 0.0 - - - - - - -
25/07:30am 12.2 NW 14 20 1014.1 - 0.0 - - - - - - -
25/07:00am 12.0 WNW 15 19 1014.1 - 0.0 - - - - - - -
25/06:30am 12.1 WNW 17 23 1014.0 - 0.0 - - - - - - -
25/06:00am 12.0 WNW 17 23 1014.2 - 0.0 - - - - - - -
25/05:30am 12.0 NW 16 22 1014.0 - 0.0 - - - - - - -
25/05:00am 11.9 NW 16 22 1014.1 - 0.0 - - - - - - -
25/04:30am 11.6 WNW 18 29 1014.6 - 0.0 - - - - - - -
25/04:29am 11.6 WNW 17 29 1014.6 - 0.0 - - - - - - -
25/04:00am 11.4 WNW 15 23 1014.9 - 0.0 - - - - - - -
25/03:34am 11.3 WNW 15 25 1014.8 - 0.0 - - - - - - -
25/03:30am 11.3 WNW 16 25 1014.8 - 0.0 - - - - - - -
25/03:00am 11.6 W 13 17 1014.8 - 0.0 - - - - - - -
25/02:30am 11.4 WNW 11 14 1015.1 - 0.0 - - - - - - -
25/02:00am 11.5 W 10 16 1015.1 - 0.0 - - - - - - -
25/01:30am 11.7 W 11 17 1015.4 - 0.0 - - - - - - -
25/01:00am 11.8 W 13 21 1015.7 - 0.0 - - - - - - -
25/12:30am 11.8 W 13 20 1016.0 - 0.0 - - - - - - -
25/12:00am 11.8 W 12 19 1016.3 - 0.0 - - - - - - -
 
Date/Time
EST
Temp

°C
Wind Pressure Rain
since 9am
mm
Weather Cloud Vis
km
Sea
Height
m
Swell
Dir
 
Speed
knots
Gust
knots
hPa Trend Height
m
Period
s
Dir
24/11:30pm 12.0 W 17 23 1016.0 - 0.0 - - - - - - -
24/11:00pm 12.2 W 15 20 1016.5 - 0.0 - - - - - - -
24/10:30pm 12.2 W 14 19 1017.0 - 0.0 - - - - - - -
24/10:00pm 12.2 W 17 26 1017.1 - 0.0 - - - - - - -
24/09:53pm 12.3 W 15 25 1017.1 - 0.0 - - - - - - -
24/09:30pm 12.2 W 19 25 1017.3 - 0.0 - - - - - - -
24/09:00pm 12.3 W 20 28 1017.4 - 0.0 - - - - - - -
24/08:34pm 12.6 W 21 31 1017.1 - 0.0 - - - - - - -
24/08:30pm 12.6 W 21 29 1017.4 - 0.0 - - - - - - -
24/08:00pm 12.5 W 21 29 1017.2 - 0.0 - - - - - - -
24/07:30pm 12.6 W 22 31 1017.2 - 0.0 - - - - - - -
24/07:00pm 12.6 W 19 25 1016.9 - 0.0 - - - - - - -
24/06:45pm 12.5 W 17 27 1016.9 - 0.0 - - - - - - -
24/06:30pm 12.6 W 20 28 1016.8 - 0.0 - - - - - - -
24/06:00pm 12.6 W 24 31 1016.4 - 0.0 - - - - - - -
24/05:34pm 12.7 W 21 31 1016.0 - 0.0 - - - - - - -
24/05:30pm 12.7 W 23 31 1016.1 - 0.0 - - - - - - -
24/05:09pm 12.7 WSW 28 39 1015.8 - 0.0 - - - - - - -
24/05:00pm 12.4 WSW 31 37 1015.9 - 0.0 - - - - - - -
24/04:56pm 12.6 WSW 35 37 1015.9 - 0.0 - - - - - - -
24/04:30pm 12.7 WSW 24 35 1016.3 - 0.0 - - - - - - -
24/04:00pm 12.6 W 24 34 1016.5 - 0.0 - - - - - - -
24/03:54pm 12.7 W 23 33 1016.1 - 0.0 - - - - - - -
24/03:30pm 12.7 W 23 31 1016.1 - 0.0 - - - - - - -
24/03:02pm 12.9 W 23 33 1015.8 - 0.0 - - - - - - -
24/03:00pm 12.9 W 24 33 1015.8 - 0.0 - - - - - - -
24/02:34pm 13.0 W 23 33 1015.7 - 0.0 - - - - - - -
24/02:30pm 13.1 W 23 32 1015.8 - 0.0 - - - - - - -
24/02:18pm 13.1 W 23 33 1015.7 - 0.0 - - - - - - -
24/02:00pm 13.2 W 26 35 1015.1 - 0.0 - - - - - - -
24/01:30pm 13.2 W 25 37 1015.2 - 0.0 - - - - - - -
24/01:00pm 13.6 W 24 36 1015.5 - 0.0 - - - - - - -
24/12:30pm 13.3 W 26 37 1015.2 - 0.0 - - - - - - -
24/12:00pm 13.4 W 27 37 1015.6 - 0.0 - - - - - - -
24/11:39am 13.7 W 26 36 1015.6 - 0.0 - - - - - - -
24/11:30am 13.7 W 24 33 1015.9 - 0.0 - - - - - - -
24/11:00am 13.2 WSW 27 43 1015.7 - 0.0 - - - - - - -
24/10:30am 13.5 WSW 32 43 1015.9 - 0.0 - - - - - - -
24/10:00am 13.5 WSW 29 40 1015.9 - 0.0 - - - - - - -
24/09:30am 13.3 WSW 34 45 1015.4 - 0.0 - - - - - - -
24/09:00am 13.1 WSW 31 46 1015.3 - 4.6 - - - - - - -
24/08:30am 12.9 WSW 43 49 1014.3 - 4.6 - - - - - - -
24/08:23am 12.9 WSW 42 46 1014.8 - 4.6 - - - - - - -
24/08:00am 12.2 W 30 43 1015.2 - 4.6 - - - - - - -
24/07:34am 12.4 WSW 32 50 1014.5 - 4.6 - - - - - - -
24/07:31am 12.5 WSW 45 50 1013.8 - 4.6 - - - - - - -
24/07:30am 12.8 WSW 33 49 1013.9 - 4.6 - - - - - - -
24/07:00am 12.8 W 32 42 1013.8 - 4.6 - - - - - - -
24/06:53am 12.8 W 32 42 1013.7 - 4.6 - - - - - - -
24/06:48am 12.5 WSW 30 50 1013.8 - 4.6 - - - - - - -
24/06:33am 12.4 WSW 41 51 1013.3 - 4.6 - - - - - - -
24/06:30am 12.6 WSW 44 51 1013.5 - 4.6 - - - - - - -

Other Formats:

Comma delimited format used in spreadsheet applications
http://www.bom.gov.au/fwo/IDV60701/IDV60701.94893.axf

JavaScript Object Notation format (JSON) in row-major order
http://www.bom.gov.au/fwo/IDV60701/IDV60701.94893.json